sensor_id;sensor_type;location;lat;lon;timestamp;temperature;humidity
26230;DHT22;13960;50.860;4.352;2022-12-07T03:14:47;4.60;99.90
26230;DHT22;13960;50.860;4.352;2022-12-07T03:17:18;4.70;99.90
26230;DHT22;13960;50.860;4.352;2022-12-07T03:19:46;4.70;99.90
26230;DHT22;13960;50.860;4.352;2022-12-07T03:22:13;4.60;99.90
26230;DHT22;13960;50.860;4.352;2022-12-07T03:24:43;4.50;99.90
26230;DHT22;13960;50.860;4.352;2022-12-07T03:27:16;4.50;99.90
26230;DHT22;13960;50.860;4.352;2022-12-07T03:29:45;4.50;99.90
26230;DHT22;13960;50.860;4.352;2022-12-07T03:32:14;4.50;99.90
26230;DHT22;13960;50.860;4.352;2022-12-07T03:34:46;4.50;99.90
26230;DHT22;13960;50.860;4.352;2022-12-07T03:37:23;4.50;99.90
26230;DHT22;13960;50.860;4.352;2022-12-07T03:42:20;4.60;99.90
26230;DHT22;13960;50.860;4.352;2022-12-07T03:44:45;4.70;99.90
26230;DHT22;13960;50.860;4.352;2022-12-07T03:47:16;4.80;99.90
26230;DHT22;13960;50.860;4.352;2022-12-07T03:49:49;4.90;99.90
26230;DHT22;13960;50.860;4.352;2022-12-07T03:52:18;4.90;99.90
26230;DHT22;13960;50.860;4.352;2022-12-07T03:54:49;4.90;99.90
26230;DHT22;13960;50.860;4.352;2022-12-07T03:57:17;4.90;99.90
26230;DHT22;13960;50.860;4.352;2022-12-07T03:59:43;4.90;99.90
26230;DHT22;13960;50.860;4.352;2022-12-07T04:02:09;4.80;99.90
26230;DHT22;13960;50.860;4.352;2022-12-07T04:04:36;4.80;99.90
26230;DHT22;13960;50.860;4.352;2022-12-07T04:07:02;4.60;99.90
26230;DHT22;13960;50.860;4.352;2022-12-07T04:09:28;4.60;99.90
26230;DHT22;13960;50.860;4.352;2022-12-07T04:11:53;4.70;99.90
26230;DHT22;13960;50.860;4.352;2022-12-07T04:14:19;4.60;99.90
26230;DHT22;13960;50.860;4.352;2022-12-07T04:16:54;4.60;99.90
26230;DHT22;13960;50.860;4.352;2022-12-07T04:19:25;4.70;99.90
26230;DHT22;13960;50.860;4.352;2022-12-07T04:21:51;4.80;99.90
26230;DHT22;13960;50.860;4.352;2022-12-07T04:24:19;4.60;99.90
26230;DHT22;13960;50.860;4.352;2022-12-07T04:26:45;4.60;99.90
26230;DHT22;13960;50.860;4.352;2022-12-07T04:29:11;4.60;99.90
26230;DHT22;13960;50.860;4.352;2022-12-07T04:31:37;4.40;99.90
26230;DHT22;13960;50.860;4.352;2022-12-07T04:34:04;4.40;99.90
26230;DHT22;13960;50.860;4.352;2022-12-07T04:36:30;4.30;99.90
26230;DHT22;13960;50.860;4.352;2022-12-07T04:38:56;4.30;99.90
26230;DHT22;13960;50.860;4.352;2022-12-07T04:41:21;4.50;99.90
26230;DHT22;13960;50.860;4.352;2022-12-07T04:43:53;4.30;99.90
26230;DHT22;13960;50.860;4.352;2022-12-07T04:46:19;4.20;99.90
26230;DHT22;13960;50.860;4.352;2022-12-07T04:48:45;4.20;99.90
26230;DHT22;13960;50.860;4.352;2022-12-07T04:51:10;4.20;99.90
26230;DHT22;13960;50.860;4.352;2022-12-07T04:53:36;4.20;99.90
26230;DHT22;13960;50.860;4.352;2022-12-07T04:56:01;4.20;99.90
26230;DHT22;13960;50.860;4.352;2022-12-07T04:58:27;4.20;99.90
26230;DHT22;13960;50.860;4.352;2022-12-07T05:00:55;4.30;99.90
26230;DHT22;13960;50.860;4.352;2022-12-07T05:03:21;4.40;99.90
26230;DHT22;13960;50.860;4.352;2022-12-07T05:05:46;4.60;99.90
26230;DHT22;13960;50.860;4.352;2022-12-07T05:08:12;4.70;99.90
26230;DHT22;13960;50.860;4.352;2022-12-07T05:10:37;4.60;99.90
26230;DHT22;13960;50.860;4.352;2022-12-07T05:13:03;4.70;99.90
26230;DHT22;13960;50.860;4.352;2022-12-07T05:15:28;4.70;99.90
26230;DHT22;13960;50.860;4.352;2022-12-07T05:17:55;4.40;99.90
26230;DHT22;13960;50.860;4.352;2022-12-07T05:20:21;4.20;99.90
26230;DHT22;13960;50.860;4.352;2022-12-07T05:22:47;4.20;99.90
26230;DHT22;13960;50.860;4.352;2022-12-07T05:25:13;4.20;99.90
26230;DHT22;13960;50.860;4.352;2022-12-07T05:27:38;4.20;99.90
26230;DHT22;13960;50.860;4.352;2022-12-07T05:30:04;4.20;99.90
26230;DHT22;13960;50.860;4.352;2022-12-07T05:32:30;4.30;99.90
26230;DHT22;13960;50.860;4.352;2022-12-07T05:34:55;4.30;99.90
26230;DHT22;13960;50.860;4.352;2022-12-07T05:37:21;4.40;99.90
26230;DHT22;13960;50.860;4.352;2022-12-07T05:39:46;4.30;99.90
26230;DHT22;13960;50.860;4.352;2022-12-07T05:42:12;4.40;99.90
26230;DHT22;13960;50.860;4.352;2022-12-07T05:44:38;4.30;99.90
26230;DHT22;13960;50.860;4.352;2022-12-07T05:47:03;4.20;99.90
26230;DHT22;13960;50.860;4.352;2022-12-07T05:49:29;4.20;99.90
26230;DHT22;13960;50.860;4.352;2022-12-07T05:51:55;4.40;99.90
26230;DHT22;13960;50.860;4.352;2022-12-07T05:54:20;4.30;99.90
26230;DHT22;13960;50.860;4.352;2022-12-07T05:56:46;4.30;99.90
26230;DHT22;13960;50.860;4.352;2022-12-07T05:59:11;4.30;99.90
26230;DHT22;13960;50.860;4.352;2022-12-07T06:01:50;4.30;99.90
26230;DHT22;13960;50.860;4.352;2022-12-07T06:04:16;4.30;99.90
26230;DHT22;13960;50.860;4.352;2022-12-07T06:06:42;4.60;99.90
26230;DHT22;13960;50.860;4.352;2022-12-07T06:09:09;4.80;99.90
26230;DHT22;13960;50.860;4.352;2022-12-07T06:11:34;4.80;99.90
26230;DHT22;13960;50.860;4.352;2022-12-07T06:14:18;4.40;99.90
26230;DHT22;13960;50.860;4.352;2022-12-07T06:16:44;4.30;99.90
26230;DHT22;13960;50.860;4.352;2022-12-07T06:19:10;4.40;99.90
26230;DHT22;13960;50.860;4.352;2022-12-07T06:21:35;4.50;99.90
26230;DHT22;13960;50.860;4.352;2022-12-07T06:24:01;4.60;99.90
26230;DHT22;13960;50.860;4.352;2022-12-07T06:26:27;4.60;99.90
26230;DHT22;13960;50.860;4.352;2022-12-07T06:28:53;4.90;99.90
26230;DHT22;13960;50.860;4.352;2022-12-07T06:31:18;4.90;99.90
26230;DHT22;13960;50.860;4.352;2022-12-07T06:33:44;5.10;99.90
26230;DHT22;13960;50.860;4.352;2022-12-07T06:36:10;4.90;99.90
26230;DHT22;13960;50.860;4.352;2022-12-07T06:38:35;4.90;99.90
26230;DHT22;13960;50.860;4.352;2022-12-07T06:41:01;5.00;99.90
26230;DHT22;13960;50.860;4.352;2022-12-07T06:43:27;5.20;99.90
26230;DHT22;13960;50.860;4.352;2022-12-07T06:45:52;5.40;99.90
26230;DHT22;13960;50.860;4.352;2022-12-07T06:48:18;4.90;99.90
26230;DHT22;13960;50.860;4.352;2022-12-07T06:50:44;4.70;99.90
26230;DHT22;13960;50.860;4.352;2022-12-07T06:53:10;4.80;99.90
26230;DHT22;13960;50.860;4.352;2022-12-07T06:55:35;5.10;99.90
26230;DHT22;13960;50.860;4.352;2022-12-07T06:58:01;5.20;99.90
26230;DHT22;13960;50.860;4.352;2022-12-07T07:00:27;5.00;99.90
26230;DHT22;13960;50.860;4.352;2022-12-07T07:02:53;5.00;99.90
26230;DHT22;13960;50.860;4.352;2022-12-07T07:05:19;4.80;99.90
26230;DHT22;13960;50.860;4.352;2022-12-07T07:07:47;5.00;99.90
26230;DHT22;13960;50.860;4.352;2022-12-07T07:10:13;5.20;99.90
26230;DHT22;13960;50.860;4.352;2022-12-07T07:12:38;5.50;99.90
26230;DHT22;13960;50.860;4.352;2022-12-07T07:15:04;5.10;99.90
26230;DHT22;13960;50.860;4.352;2022-12-07T07:17:30;4.70;99.90
26230;DHT22;13960;50.860;4.352;2022-12-07T07:19:55;4.50;99.90
26230;DHT22;13960;50.860;4.352;2022-12-07T07:22:21;4.50;99.90
26230;DHT22;13960;50.860;4.352;2022-12-07T07:24:46;4.40;99.90
26230;DHT22;13960;50.860;4.352;2022-12-07T07:27:12;4.40;99.90
26230;DHT22;13960;50.860;4.352;2022-12-07T07:29:37;4.40;99.90
26230;DHT22;13960;50.860;4.352;2022-12-07T07:32:03;4.50;99.90
26230;DHT22;13960;50.860;4.352;2022-12-07T07:34:28;4.70;99.90
26230;DHT22;13960;50.860;4.352;2022-12-07T07:36:54;4.70;99.90
26230;DHT22;13960;50.860;4.352;2022-12-07T07:39:19;4.90;99.90
26230;DHT22;13960;50.860;4.352;2022-12-07T07:41:46;4.90;99.90
26230;DHT22;13960;50.860;4.352;2022-12-07T07:44:14;5.10;99.90
26230;DHT22;13960;50.860;4.352;2022-12-07T07:46:39;4.80;99.90
26230;DHT22;13960;50.860;4.352;2022-12-07T07:49:05;4.60;99.90
26230;DHT22;13960;50.860;4.352;2022-12-07T07:51:30;4.50;99.90
26230;DHT22;13960;50.860;4.352;2022-12-07T07:53:56;4.50;99.90
26230;DHT22;13960;50.860;4.352;2022-12-07T07:56:22;4.70;99.90
26230;DHT22;13960;50.860;4.352;2022-12-07T07:58:51;4.90;99.90
26230;DHT22;13960;50.860;4.352;2022-12-07T08:01:16;5.20;99.90
26230;DHT22;13960;50.860;4.352;2022-12-07T08:03:45;5.20;99.90
26230;DHT22;13960;50.860;4.352;2022-12-07T08:06:11;5.30;99.90
26230;DHT22;13960;50.860;4.352;2022-12-07T08:08:36;5.10;99.90
26230;DHT22;13960;50.860;4.352;2022-12-07T08:11:04;5.00;99.90
26230;DHT22;13960;50.860;4.352;2022-12-07T08:13:30;4.90;99.90
26230;DHT22;13960;50.860;4.352;2022-12-07T08:15:55;4.80;99.90
26230;DHT22;13960;50.860;4.352;2022-12-07T08:18:21;4.80;99.90
26230;DHT22;13960;50.860;4.352;2022-12-07T08:20:47;4.80;99.90
26230;DHT22;13960;50.860;4.352;2022-12-07T08:23:12;4.70;99.90
26230;DHT22;13960;50.860;4.352;2022-12-07T08:25:38;4.70;99.90
26230;DHT22;13960;50.860;4.352;2022-12-07T08:28:04;4.70;99.90
26230;DHT22;13960;50.860;4.352;2022-12-07T08:30:29;4.50;99.90
26230;DHT22;13960;50.860;4.352;2022-12-07T08:32:55;4.40;99.90
26230;DHT22;13960;50.860;4.352;2022-12-07T08:35:21;4.30;99.90
26230;DHT22;13960;50.860;4.352;2022-12-07T08:37:47;4.30;99.90
26230;DHT22;13960;50.860;4.352;2022-12-07T08:40:12;4.30;99.90
26230;DHT22;13960;50.860;4.352;2022-12-07T08:42:50;4.30;99.90
26230;DHT22;13960;50.860;4.352;2022-12-07T08:45:16;4.30;99.90
26230;DHT22;13960;50.860;4.352;2022-12-07T08:48:01;4.40;99.90
26230;DHT22;13960;50.860;4.352;2022-12-07T08:50:29;4.50;99.90
26230;DHT22;13960;50.860;4.352;2022-12-07T08:52:55;4.50;99.90
26230;DHT22;13960;50.860;4.352;2022-12-07T08:55:22;4.60;99.90
26230;DHT22;13960;50.860;4.352;2022-12-07T08:57:47;4.80;99.90
26230;DHT22;13960;50.860;4.352;2022-12-07T09:00:13;4.70;99.90
26230;DHT22;13960;50.860;4.352;2022-12-07T09:02:39;4.70;99.90
26230;DHT22;13960;50.860;4.352;2022-12-07T09:05:04;4.80;99.90
26230;DHT22;13960;50.860;4.352;2022-12-07T09:07:30;4.90;99.90
26230;DHT22;13960;50.860;4.352;2022-12-07T09:09:57;5.00;99.90
26230;DHT22;13960;50.860;4.352;2022-12-07T09:12:22;5.20;99.90
26230;DHT22;13960;50.860;4.352;2022-12-07T09:14:48;5.20;99.90
26230;DHT22;13960;50.860;4.352;2022-12-07T09:17:14;5.00;99.90
26230;DHT22;13960;50.860;4.352;2022-12-07T09:19:39;5.00;99.90
26230;DHT22;13960;50.860;4.352;2022-12-07T09:22:06;5.00;99.90
26230;DHT22;13960;50.860;4.352;2022-12-07T09:24:32;5.00;99.90
26230;DHT22;13960;50.860;4.352;2022-12-07T09:26:58;5.20;99.90
26230;DHT22;13960;50.860;4.352;2022-12-07T09:29:24;5.30;99.90
26230;DHT22;13960;50.860;4.352;2022-12-07T09:31:50;5.50;99.90
26230;DHT22;13960;50.860;4.352;2022-12-07T09:34:16;5.50;99.90
26230;DHT22;13960;50.860;4.352;2022-12-07T09:36:41;5.40;99.90
26230;DHT22;13960;50.860;4.352;2022-12-07T09:39:08;5.40;99.90
26230;DHT22;13960;50.860;4.352;2022-12-07T09:41:33;5.50;99.90
26230;DHT22;13960;50.860;4.352;2022-12-07T09:44:18;5.50;99.90
26230;DHT22;13960;50.860;4.352;2022-12-07T09:46:45;5.40;99.90
26230;DHT22;13960;50.860;4.352;2022-12-07T09:49:16;5.40;99.90
26230;DHT22;13960;50.860;4.352;2022-12-07T09:51:42;5.40;99.90
26230;DHT22;13960;50.860;4.352;2022-12-07T09:54:08;5.60;99.90
26230;DHT22;13960;50.860;4.352;2022-12-07T09:56:37;5.60;99.90
26230;DHT22;13960;50.860;4.352;2022-12-07T09:59:02;5.70;99.90
26230;DHT22;13960;50.860;4.352;2022-12-07T10:01:29;5.90;99.90
26230;DHT22;13960;50.860;4.352;2022-12-07T10:03:57;5.70;99.90
26230;DHT22;13960;50.860;4.352;2022-12-07T10:06:24;5.80;99.90
26230;DHT22;13960;50.860;4.352;2022-12-07T10:08:50;5.60;99.90
26230;DHT22;13960;50.860;4.352;2022-12-07T10:11:15;5.60;99.90
26230;DHT22;13960;50.860;4.352;2022-12-07T10:13:42;5.60;99.90
26230;DHT22;13960;50.860;4.352;2022-12-07T10:18:49;5.60;99.90
26230;DHT22;13960;50.860;4.352;2022-12-07T10:21:23;5.60;99.90
26230;DHT22;13960;50.860;4.352;2022-12-07T10:24:02;5.60;99.90
26230;DHT22;13960;50.860;4.352;2022-12-07T10:26:35;5.70;99.90
26230;DHT22;13960;50.860;4.352;2022-12-07T10:29:04;5.90;99.90
26230;DHT22;13960;50.860;4.352;2022-12-07T10:31:39;6.00;99.90
26230;DHT22;13960;50.860;4.352;2022-12-07T10:36:51;5.90;99.90
26230;DHT22;13960;50.860;4.352;2022-12-07T10:39:18;5.90;99.90
26230;DHT22;13960;50.860;4.352;2022-12-07T10:41:54;5.90;99.90
26230;DHT22;13960;50.860;4.352;2022-12-07T10:44:24;6.00;99.90
26230;DHT22;13960;50.860;4.352;2022-12-07T10:47:12;6.20;99.90
26230;DHT22;13960;50.860;4.352;2022-12-07T10:57:59;6.40;99.90
26230;DHT22;13960;50.860;4.352;2022-12-07T11:00:31;6.50;99.90
26230;DHT22;13960;50.860;4.352;2022-12-07T11:05:45;6.80;99.90
26230;DHT22;13960;50.860;4.352;2022-12-07T11:10:47;6.40;99.90
26230;DHT22;13960;50.860;4.352;2022-12-07T11:13:19;6.50;99.90
26230;DHT22;13960;50.860;4.352;2022-12-07T11:23:48;6.40;99.90
26230;DHT22;13960;50.860;4.352;2022-12-07T11:36:43;6.10;99.90
26230;DHT22;13960;50.860;4.352;2022-12-07T11:39:29;6.10;99.90
26230;DHT22;13960;50.860;4.352;2022-12-07T11:42:09;6.20;99.90
26230;DHT22;13960;50.860;4.352;2022-12-07T11:52:09;6.50;99.90
26230;DHT22;13960;50.860;4.352;2022-12-07T11:54:40;6.50;99.90
26230;DHT22;13960;50.860;4.352;2022-12-07T11:57:09;6.50;99.90
26230;DHT22;13960;50.860;4.352;2022-12-07T11:59:39;6.40;99.90
26230;DHT22;13960;50.860;4.352;2022-12-07T12:02:13;6.50;99.90
26230;DHT22;13960;50.860;4.352;2022-12-07T12:04:46;6.40;99.90
26230;DHT22;13960;50.860;4.352;2022-12-07T12:07:15;6.50;99.90
26230;DHT22;13960;50.860;4.352;2022-12-07T12:09:49;6.50;99.90
26230;DHT22;13960;50.860;4.352;2022-12-07T12:20:28;6.60;99.90
26230;DHT22;13960;50.860;4.352;2022-12-07T12:22:57;6.50;99.90
26230;DHT22;13960;50.860;4.352;2022-12-07T12:27:49;6.60;99.90
26230;DHT22;13960;50.860;4.352;2022-12-07T12:32:50;6.50;99.90
26230;DHT22;13960;50.860;4.352;2022-12-07T12:37:52;6.40;99.90
26230;DHT22;13960;50.860;4.352;2022-12-07T12:42:47;6.50;99.90
26230;DHT22;13960;50.860;4.352;2022-12-07T12:47:54;6.60;99.90
26230;DHT22;13960;50.860;4.352;2022-12-07T12:55:47;6.70;99.90
26230;DHT22;13960;50.860;4.352;2022-12-07T13:00:44;6.90;99.90
26230;DHT22;13960;50.860;4.352;2022-12-07T13:03:24;6.90;99.90
26230;DHT22;13960;50.860;4.352;2022-12-07T13:06:16;7.00;99.90
26230;DHT22;13960;50.860;4.352;2022-12-07T13:08:37;7.00;99.90
26230;DHT22;13960;50.860;4.352;2022-12-07T13:13:50;6.90;99.90
26230;DHT22;13960;50.860;4.352;2022-12-07T13:18:41;6.90;99.90
26230;DHT22;13960;50.860;4.352;2022-12-07T13:28:42;7.30;99.90
26230;DHT22;13960;50.860;4.352;2022-12-07T13:33:45;7.10;99.90
26230;DHT22;13960;50.860;4.352;2022-12-07T13:36:17;7.10;99.90
26230;DHT22;13960;50.860;4.352;2022-12-07T13:38:48;7.10;99.90
26230;DHT22;13960;50.860;4.352;2022-12-07T13:41:15;7.20;99.90
26230;DHT22;13960;50.860;4.352;2022-12-07T13:46:09;7.10;99.90
26230;DHT22;13960;50.860;4.352;2022-12-07T13:48:44;7.20;99.90
26230;DHT22;13960;50.860;4.352;2022-12-07T13:51:16;7.20;99.90
26230;DHT22;13960;50.860;4.352;2022-12-07T13:53:49;7.20;99.90
26230;DHT22;13960;50.860;4.352;2022-12-07T13:56:15;7.10;99.90
26230;DHT22;13960;50.860;4.352;2022-12-07T13:58:41;7.00;99.90
26230;DHT22;13960;50.860;4.352;2022-12-07T14:01:06;7.00;99.90
26230;DHT22;13960;50.860;4.352;2022-12-07T14:03:33;6.90;99.90
26230;DHT22;13960;50.860;4.352;2022-12-07T14:06:22;6.90;99.90
26230;DHT22;13960;50.860;4.352;2022-12-07T14:08:44;6.70;99.90
26230;DHT22;13960;50.860;4.352;2022-12-07T14:11:17;6.70;99.90
26230;DHT22;13960;50.860;4.352;2022-12-07T14:13:55;6.70;99.90
26230;DHT22;13960;50.860;4.352;2022-12-07T14:16:26;6.80;99.90
26230;DHT22;13960;50.860;4.352;2022-12-07T14:18:53;6.80;99.90
26230;DHT22;13960;50.860;4.352;2022-12-07T14:21:20;6.80;99.90
26230;DHT22;13960;50.860;4.352;2022-12-07T14:24:08;6.80;99.90
26230;DHT22;13960;50.860;4.352;2022-12-07T14:26:34;6.80;99.90
26230;DHT22;13960;50.860;4.352;2022-12-07T14:31:44;6.60;99.90
26230;DHT22;13960;50.860;4.352;2022-12-07T14:34:11;6.40;99.90
26230;DHT22;13960;50.860;4.352;2022-12-07T14:36:37;6.40;99.90
26230;DHT22;13960;50.860;4.352;2022-12-07T14:39:02;6.50;99.90
26230;DHT22;13960;50.860;4.352;2022-12-07T14:41:28;6.40;99.90
26230;DHT22;13960;50.860;4.352;2022-12-07T14:44:12;6.20;99.90
26230;DHT22;13960;50.860;4.352;2022-12-07T14:46:38;6.30;99.90
26230;DHT22;13960;50.860;4.352;2022-12-07T14:49:04;6.10;99.90
26230;DHT22;13960;50.860;4.352;2022-12-07T14:51:30;6.10;99.90
26230;DHT22;13960;50.860;4.352;2022-12-07T14:53:56;6.00;99.90
26230;DHT22;13960;50.860;4.352;2022-12-07T14:56:21;6.10;99.90
26230;DHT22;13960;50.860;4.352;2022-12-07T14:58:47;6.20;99.90
26230;DHT22;13960;50.860;4.352;2022-12-07T15:01:15;6.20;99.90
26230;DHT22;13960;50.860;4.352;2022-12-07T15:03:40;6.40;99.90
26230;DHT22;13960;50.860;4.352;2022-12-07T15:06:06;6.40;99.90
26230;DHT22;13960;50.860;4.352;2022-12-07T15:08:31;6.30;99.90
26230;DHT22;13960;50.860;4.352;2022-12-07T15:10:57;6.40;99.90
26230;DHT22;13960;50.860;4.352;2022-12-07T15:13:22;6.40;99.90
26230;DHT22;13960;50.860;4.352;2022-12-07T15:16:10;6.50;99.90
26230;DHT22;13960;50.860;4.352;2022-12-07T15:18:36;6.40;99.90
26230;DHT22;13960;50.860;4.352;2022-12-07T15:21:01;6.40;99.90
26230;DHT22;13960;50.860;4.352;2022-12-07T15:23:27;6.30;99.90
26230;DHT22;13960;50.860;4.352;2022-12-07T15:25:52;6.30;99.90
26230;DHT22;13960;50.860;4.352;2022-12-07T15:28:18;6.30;99.90
26230;DHT22;13960;50.860;4.352;2022-12-07T15:30:43;6.50;99.90
26230;DHT22;13960;50.860;4.352;2022-12-07T15:33:10;6.40;99.90
26230;DHT22;13960;50.860;4.352;2022-12-07T15:35:44;6.40;99.90
26230;DHT22;13960;50.860;4.352;2022-12-07T15:38:10;6.30;99.90
26230;DHT22;13960;50.860;4.352;2022-12-07T15:40:36;6.50;99.90
26230;DHT22;13960;50.860;4.352;2022-12-07T15:43:02;6.30;99.90
26230;DHT22;13960;50.860;4.352;2022-12-07T15:45:27;6.30;99.90
26230;DHT22;13960;50.860;4.352;2022-12-07T15:47:54;6.30;99.90
26230;DHT22;13960;50.860;4.352;2022-12-07T15:50:20;6.30;99.90
26230;DHT22;13960;50.860;4.352;2022-12-07T15:52:46;6.30;99.90
26230;DHT22;13960;50.860;4.352;2022-12-07T15:55:11;6.20;99.90
26230;DHT22;13960;50.860;4.352;2022-12-07T15:57:38;6.20;99.90
26230;DHT22;13960;50.860;4.352;2022-12-07T16:00:04;6.00;99.90
26230;DHT22;13960;50.860;4.352;2022-12-07T16:02:29;6.00;99.90
26230;DHT22;13960;50.860;4.352;2022-12-07T16:04:55;6.10;99.90
26230;DHT22;13960;50.860;4.352;2022-12-07T16:07:21;6.10;99.90
26230;DHT22;13960;50.860;4.352;2022-12-07T16:09:46;6.10;99.90
26230;DHT22;13960;50.860;4.352;2022-12-07T16:12:13;6.00;99.90
26230;DHT22;13960;50.860;4.352;2022-12-07T16:14:38;6.10;99.90
26230;DHT22;13960;50.860;4.352;2022-12-07T16:17:04;6.10;99.90
26230;DHT22;13960;50.860;4.352;2022-12-07T16:19:33;6.30;99.90
26230;DHT22;13960;50.860;4.352;2022-12-07T16:21:58;6.20;99.90
26230;DHT22;13960;50.860;4.352;2022-12-07T16:24:24;6.10;99.90
26230;DHT22;13960;50.860;4.352;2022-12-07T16:26:50;5.90;99.90
26230;DHT22;13960;50.860;4.352;2022-12-07T16:29:16;5.80;99.90
26230;DHT22;13960;50.860;4.352;2022-12-07T16:31:42;5.90;99.90
26230;DHT22;13960;50.860;4.352;2022-12-07T16:34:08;5.80;99.90
26230;DHT22;13960;50.860;4.352;2022-12-07T16:36:34;5.80;99.90
26230;DHT22;13960;50.860;4.352;2022-12-07T16:38:59;5.80;99.90
26230;DHT22;13960;50.860;4.352;2022-12-07T16:41:25;5.80;99.90
26230;DHT22;13960;50.860;4.352;2022-12-07T16:43:51;5.90;99.90
26230;DHT22;13960;50.860;4.352;2022-12-07T16:46:16;5.80;99.90
26230;DHT22;13960;50.860;4.352;2022-12-07T16:48:42;5.80;99.90
26230;DHT22;13960;50.860;4.352;2022-12-07T16:51:08;5.80;99.90
26230;DHT22;13960;50.860;4.352;2022-12-07T16:53:34;5.80;99.90
26230;DHT22;13960;50.860;4.352;2022-12-07T16:56:03;5.90;99.90
26230;DHT22;13960;50.860;4.352;2022-12-07T16:58:30;5.80;99.90
26230;DHT22;13960;50.860;4.352;2022-12-07T17:00:55;5.90;99.90
26230;DHT22;13960;50.860;4.352;2022-12-07T17:03:21;5.90;99.90
26230;DHT22;13960;50.860;4.352;2022-12-07T17:05:46;6.00;99.90
26230;DHT22;13960;50.860;4.352;2022-12-07T17:08:13;6.20;99.90
26230;DHT22;13960;50.860;4.352;2022-12-07T17:10:40;6.30;99.90
26230;DHT22;13960;50.860;4.352;2022-12-07T17:13:06;6.30;99.90
26230;DHT22;13960;50.860;4.352;2022-12-07T17:15:56;6.50;99.90
26230;DHT22;13960;50.860;4.352;2022-12-07T17:18:22;6.40;99.90
26230;DHT22;13960;50.860;4.352;2022-12-07T17:20:48;6.10;99.90
26230;DHT22;13960;50.860;4.352;2022-12-07T17:23:16;6.10;99.90
26230;DHT22;13960;50.860;4.352;2022-12-07T17:25:50;6.00;99.90
26230;DHT22;13960;50.860;4.352;2022-12-07T17:28:31;5.90;99.90
26230;DHT22;13960;50.860;4.352;2022-12-07T17:30:56;5.90;99.90
26230;DHT22;13960;50.860;4.352;2022-12-07T17:33:25;5.90;99.90
26230;DHT22;13960;50.860;4.352;2022-12-07T17:35:53;5.90;99.90
26230;DHT22;13960;50.860;4.352;2022-12-07T17:38:19;5.90;99.90
26230;DHT22;13960;50.860;4.352;2022-12-07T17:40:44;5.80;99.90
26230;DHT22;13960;50.860;4.352;2022-12-07T17:43:10;5.80;99.90
26230;DHT22;13960;50.860;4.352;2022-12-07T17:45:36;5.70;99.90
26230;DHT22;13960;50.860;4.352;2022-12-07T17:48:05;5.70;99.90
26230;DHT22;13960;50.860;4.352;2022-12-07T17:50:30;5.80;99.90
26230;DHT22;13960;50.860;4.352;2022-12-07T17:53:31;5.80;99.90
26230;DHT22;13960;50.860;4.352;2022-12-07T17:55:57;5.80;99.90
26230;DHT22;13960;50.860;4.352;2022-12-07T17:58:22;5.80;99.90
26230;DHT22;13960;50.860;4.352;2022-12-07T18:00:47;5.80;99.90
26230;DHT22;13960;50.860;4.352;2022-12-07T18:03:13;5.80;99.90
26230;DHT22;13960;50.860;4.352;2022-12-07T18:05:41;5.80;99.90
26230;DHT22;13960;50.860;4.352;2022-12-07T18:08:07;5.90;99.90
26230;DHT22;13960;50.860;4.352;2022-12-07T18:10:32;5.70;99.90
26230;DHT22;13960;50.860;4.352;2022-12-07T18:12:58;5.70;99.90
26230;DHT22;13960;50.860;4.352;2022-12-07T18:15:42;5.70;99.90
26230;DHT22;13960;50.860;4.352;2022-12-07T18:18:07;5.70;99.90
26230;DHT22;13960;50.860;4.352;2022-12-07T18:20:33;5.70;99.90
26230;DHT22;13960;50.860;4.352;2022-12-07T18:22:59;5.60;99.90
26230;DHT22;13960;50.860;4.352;2022-12-07T18:25:25;5.70;99.90
26230;DHT22;13960;50.860;4.352;2022-12-07T18:27:53;5.60;99.90
26230;DHT22;13960;50.860;4.352;2022-12-07T18:30:19;5.70;99.90
26230;DHT22;13960;50.860;4.352;2022-12-07T18:32:45;5.60;99.90
26230;DHT22;13960;50.860;4.352;2022-12-07T18:35:11;5.50;99.90
26230;DHT22;13960;50.860;4.352;2022-12-07T18:37:36;5.50;99.90
26230;DHT22;13960;50.860;4.352;2022-12-07T18:40:02;5.40;99.90
26230;DHT22;13960;50.860;4.352;2022-12-07T18:42:27;5.40;99.90
26230;DHT22;13960;50.860;4.352;2022-12-07T18:44:53;5.40;99.90
26230;DHT22;13960;50.860;4.352;2022-12-07T18:47:18;5.30;99.90
26230;DHT22;13960;50.860;4.352;2022-12-07T18:49:43;5.40;99.90
26230;DHT22;13960;50.860;4.352;2022-12-07T18:52:09;5.60;99.90
26230;DHT22;13960;50.860;4.352;2022-12-07T18:54:34;5.40;99.90
26230;DHT22;13960;50.860;4.352;2022-12-07T18:57:00;5.30;99.90
26230;DHT22;13960;50.860;4.352;2022-12-07T18:59:25;5.30;99.90
26230;DHT22;13960;50.860;4.352;2022-12-07T19:02:10;5.20;99.90
26230;DHT22;13960;50.860;4.352;2022-12-07T19:04:36;5.20;99.90
26230;DHT22;13960;50.860;4.352;2022-12-07T19:07:01;5.20;99.90
26230;DHT22;13960;50.860;4.352;2022-12-07T19:09:28;5.20;99.90
26230;DHT22;13960;50.860;4.352;2022-12-07T19:11:53;5.20;99.90
26230;DHT22;13960;50.860;4.352;2022-12-07T19:16:50;5.30;99.90
26230;DHT22;13960;50.860;4.352;2022-12-07T19:19:18;5.40;99.90
26230;DHT22;13960;50.860;4.352;2022-12-07T19:21:44;5.80;99.90
26230;DHT22;13960;50.860;4.352;2022-12-07T19:24:10;5.60;99.90
26230;DHT22;13960;50.860;4.352;2022-12-07T19:26:36;5.60;99.90
26230;DHT22;13960;50.860;4.352;2022-12-07T19:29:01;5.60;99.90
26230;DHT22;13960;50.860;4.352;2022-12-07T19:31:27;5.40;99.90
26230;DHT22;13960;50.860;4.352;2022-12-07T19:33:52;5.40;99.90
26230;DHT22;13960;50.860;4.352;2022-12-07T19:36:18;5.20;99.90
26230;DHT22;13960;50.860;4.352;2022-12-07T19:38:43;5.10;99.90
26230;DHT22;13960;50.860;4.352;2022-12-07T19:41:10;5.10;99.90
26230;DHT22;13960;50.860;4.352;2022-12-07T19:43:55;5.10;99.90
26230;DHT22;13960;50.860;4.352;2022-12-07T19:46:21;5.00;99.90
26230;DHT22;13960;50.860;4.352;2022-12-07T19:48:47;5.10;99.90
26230;DHT22;13960;50.860;4.352;2022-12-07T19:51:12;5.10;99.90
26230;DHT22;13960;50.860;4.352;2022-12-07T19:53:39;5.30;99.90
26230;DHT22;13960;50.860;4.352;2022-12-07T19:56:04;5.20;99.90
26230;DHT22;13960;50.860;4.352;2022-12-07T19:58:30;5.10;99.90
26230;DHT22;13960;50.860;4.352;2022-12-07T20:01:01;5.10;99.90
26230;DHT22;13960;50.860;4.352;2022-12-07T20:03:26;5.00;99.90
26230;DHT22;13960;50.860;4.352;2022-12-07T20:05:52;5.00;99.90
26230;DHT22;13960;50.860;4.352;2022-12-07T20:08:17;5.00;99.90
26230;DHT22;13960;50.860;4.352;2022-12-07T20:10:43;4.90;99.90
26230;DHT22;13960;50.860;4.352;2022-12-07T20:13:09;5.00;99.90
26230;DHT22;13960;50.860;4.352;2022-12-07T20:15:53;4.90;99.90
26230;DHT22;13960;50.860;4.352;2022-12-07T20:21:30;4.90;99.90
26230;DHT22;13960;50.860;4.352;2022-12-07T20:23:58;4.90;99.90
26230;DHT22;13960;50.860;4.352;2022-12-07T20:26:24;5.00;99.90
26230;DHT22;13960;50.860;4.352;2022-12-07T20:28:49;4.90;99.90
26230;DHT22;13960;50.860;4.352;2022-12-07T20:31:15;5.00;99.90
26230;DHT22;13960;50.860;4.352;2022-12-07T20:33:41;5.00;99.90
26230;DHT22;13960;50.860;4.352;2022-12-07T20:36:10;4.90;99.90
26230;DHT22;13960;50.860;4.352;2022-12-07T20:38:35;4.90;99.90
26230;DHT22;13960;50.860;4.352;2022-12-07T20:41:02;4.90;99.90
26230;DHT22;13960;50.860;4.352;2022-12-07T20:43:28;4.90;99.90